Portada
METAR-TAF:

METAR-TAF

Aeropuertos :

Aeropuerto Internacional de Chisináu

Chisinau, Moldavia

latitud: 46-55-40N, longitud: 028-55-51E, altitud: 122 m

Observación

El informe se hizo hace 35 minutos, a las 00:00 UTC
Viento 8 kt del sur-suroeste
Temperatura -2°C
Humedad 86%
Presión 1025 hPa
Visibilidad 10 km o más
sin nubes por debajo de 1500 m y sin presencia de cumulonimbus.

METAR: LUKK 060000Z 20008KT CAVOK M02/M04 Q1025 R08/D NOSIG

Hora: 02:35 (00:35 UTC)

Pronóstico

El informe se hizo hace 1 hora y 12 minutos, a las 23:23 UTC
Pronóstico válido del 06 a las 00 UTC al 06 a las 24 UTC
Viento 8 kt del sur
Visibilidad 10 km o más
sin nubes por debajo de 1500 m y sin presencia de cumulonimbus.
Evolucionando progresivamente
del 06 a las 06 UTC al 06 a las 08 UTC
Viento 12 kt del sur-suroeste

TAF: LUKK 052323Z 0600/0624 19008KT CAVOK BECMG 0606/0608 21012KT

Observaciones y pronósticos meteorológicos de más de 4000 aeropuertos (mensajes METAR y TAF).

Los puntos amarillos y rojos representan las estaciones disponibles.

Ponga el ratón en el punto deseado para ver el nombre de la estación.

Haga clic para ver las observaciones y los pronósticos meteorológicos.

Para cambiar el mapa : haga clic en los botones verdes con una cruz de color negro para hacer un zoom, en el botón verde con un guión para alejar o en las flechas verdes para mapas adyacentes.


METAR-TAF: